DBBB/COO METAR and TAF weather

Enter ICAO airport designator
Station Type Date Time Source
DBBB METAR 2021/10/22 19:00 UTC NOAA

DBBB 221900Z 21011KT 9999 TS SCT012 FEW020CB 28/25 Q1011 NOSIG


Station Type Date Time Source
DBBB Decoded METAR 2021/10/22 19:00 UTC NOAA

Cotonou, Benin (DBBB) 06-21N 002-23E 9M
Oct 22, 2021 - 03:00 PM EDT / 2021.10.22 1900 UTC
Wind: from the SSW (210 degrees) at 13 MPH (11 KT):0
Visibility: greater than 7 mile(s):0
Sky conditions: partly cloudy
Weather: thunder; Cumulonimbus clouds observed
Temperature: 82 F (28 C)
Dew Point: 77 F (25 C)
Relative Humidity: 83%
Pressure (altimeter): 29.85 in. Hg (1011 hPa)
ob: DBBB 221900Z 21011KT 9999 TS SCT012 FEW020CB 28/25 Q1011 NOSIG
cycle: 19

Station Type Date Time Source
DBBB TAF 2021/10/22 18:24 UTC NOAA

TAF TAF DBBB 221700Z 2218/2324 22010KT 9999 TS BKN010 FEW023CB
TEMPO 2220/2304 4000 TSRA PROB30 2221/2224 090G20G30KT
BECMG 2306/2308 NSW SCT012

Example: see airport list